Time;durP1;ratioP1;P1;durP2;ratioP2;P2;SDS_P1;SDS_P2;PMS_P1;PMS_P2;Temp;Humidity;BMP_temperature;BMP_pressure;BME280_temperature;BME280_humidity;BME280_pressure;Samples;Min_cycle;Max_cycle;Signal;HPM_P1;HPM_P2
2022/05/22 00:00:42;;;;;;;4.58;1.12;;;;;;;13.58;59.68;98924.53;4377204;79;21004;-85
2022/05/22 00:07:22;;;;;;;7.50;1.30;;;;;;;13.59;59.83;98923.95;4294206;80;21055;-81
2022/05/22 00:20:17;;;;;;;4.92;1.05;;;;;;;13.41;60.13;98913.55;4215710;82;21901;-82
2022/05/22 00:26:37;;;;;;;3.30;1.10;;;;;;;13.28;60.48;98916.54;4195272;81;21583;-83
2022/05/22 00:32:50;;;;;;;3.30;1.20;;;;;;;13.23;60.78;98912.23;4275227;80;21114;-83
2022/05/22 00:39:06;;;;;;;3.72;1.00;;;;;;;13.16;61.03;98909.47;4314167;78;22241;-82
2022/05/22 00:45:28;;;;;;;5.35;1.50;;;;;;;13.03;61.32;98906.91;4562674;76;21078;-82
2022/05/22 00:51:53;;;;;;;7.42;1.57;;;;;;;12.87;62.19;98901.02;4537308;76;21023;-82
2022/05/22 00:58:20;;;;;;;3.92;1.50;;;;;;;12.86;62.52;98909.04;4575573;76;21002;-82
2022/05/22 01:18:53;;;;;;;3.98;1.70;;;;;;;12.99;63.17;98903.94;4324076;81;21659;-82
2022/05/22 01:25:07;;;;;;;4.28;1.85;;;;;;;13.04;63.36;98904.37;4384252;77;21066;-82
2022/05/22 01:31:18;;;;;;;3.45;1.62;;;;;;;13.12;63.55;98907.91;4502816;77;21444;-82
2022/05/22 01:37:33;;;;;;;2.40;1.60;;;;;;;13.18;63.69;98906.33;4492155;76;21021;-82
2022/05/22 01:44:01;;;;;;;4.33;2.00;;;;;;;13.23;63.96;98903.19;4601126;76;20973;-82
2022/05/22 01:50:21;;;;;;;5.42;2.55;;;;;;;13.19;64.08;98897.69;4288582;80;21050;-82
2022/05/22 01:56:23;;;;;;;4.60;1.77;;;;;;;13.11;64.50;98898.86;4369113;76;21052;-85
2022/05/22 02:02:25;;;;;;;6.67;2.33;;;;;;;12.99;64.76;98905.31;4577837;76;21024;-82
2022/05/22 02:08:42;;;;;;;3.10;1.95;;;;;;;12.85;65.10;98887.45;4568898;76;21059;-84
2022/05/22 02:14:45;;;;;;;3.20;2.10;;;;;;;12.70;65.28;98883.14;4553438;76;20983;-82
2022/05/22 02:21:01;;;;;;;3.45;2.42;;;;;;;12.57;65.65;98882.13;4435757;78;20983;-82
2022/05/22 02:27:26;;;;;;;4.67;2.70;;;;;;;12.48;65.96;98872.73;4444285;78;21928;-82
2022/05/22 02:33:31;;;;;;;8.03;2.92;;;;;;;12.46;66.06;98875.07;4241473;82;21682;-82
2022/05/22 02:39:51;;;;;;;6.22;2.72;;;;;;;12.30;66.60;98876.81;4232891;83;21118;-82
2022/05/22 02:46:16;;;;;;;4.40;2.58;;;;;;;12.21;66.89;98875.03;4226599;82;21082;-82
2022/05/22 02:52:47;;;;;;;6.53;2.52;;;;;;;12.14;67.35;98872.83;4221889;82;21118;-83
2022/05/22 02:59:36;;;;;;;3.37;2.50;;;;;;;12.02;67.57;98872.61;4424200;79;20999;-82
2022/05/22 03:12:51;;;;;;;6.00;2.72;;;;;;;11.85;68.41;98884.31;4299100;76;38898;-82
2022/05/22 03:18:59;;;;;;;7.67;3.37;;;;;;;11.82;68.94;98876.06;4205297;83;21011;-83
2022/05/22 03:25:10;;;;;;;5.55;3.00;;;;;;;11.81;69.13;98868.98;4163738;84;21019;-82
2022/05/22 03:31:24;;;;;;;6.05;2.77;;;;;;;11.82;69.38;98855.48;4157026;84;21510;-82
2022/05/22 03:37:44;;;;;;;5.50;3.12;;;;;;;11.82;69.82;98859.61;4258124;81;21078;-81
2022/05/22 03:43:51;;;;;;;4.08;2.70;;;;;;;11.85;69.40;98851.97;4232563;83;21597;-82
2022/05/22 03:50:14;;;;;;;3.50;2.45;;;;;;;11.79;70.32;98847.43;4231530;83;21098;-81
2022/05/22 03:56:21;;;;;;;7.65;4.80;;;;;;;11.72;70.38;98844.67;4242510;83;21030;-81
2022/05/22 04:03:00;;;;;;;7.40;3.87;;;;;;;11.63;70.30;98850.31;4244782;83;21054;-82
2022/05/22 04:09:38;;;;;;;6.97;4.03;;;;;;;11.61;70.85;98856.15;4237170;83;21069;-82
2022/05/22 04:15:52;;;;;;;7.45;4.03;;;;;;;11.72;71.46;98865.81;4215325;83;21022;-81
2022/05/22 04:22:02;;;;;;;8.08;3.98;;;;;;;11.81;71.73;98860.18;4238412;83;21688;-83
2022/05/22 04:35:08;;;;;;;7.42;4.28;;;;;;;12.04;71.98;98868.11;4187463;83;21119;-82
2022/05/22 04:48:13;;;;;;;8.45;3.98;;;;;;;12.32;72.21;98873.06;4157610;83;21586;-82
2022/05/22 04:54:40;;;;;;;8.10;4.15;;;;;;;12.49;72.46;98881.95;4137412;84;21218;-81
2022/05/22 05:00:47;;;;;;;7.85;4.87;;;;;;;12.65;72.20;98879.59;4135275;84;21063;-81
2022/05/22 05:06:52;;;;;;;7.87;4.80;;;;;;;12.73;72.16;98872.75;4159530;84;21078;-80
2022/05/22 05:13:24;;;;;;;7.90;4.60;;;;;;;12.89;72.21;98873.91;4142881;84;21074;-83
2022/05/22 05:19:40;;;;;;;6.60;4.12;;;;;;;13.01;71.92;98872.77;4123523;84;20980;-84
2022/05/22 05:26:23;;;;;;;8.98;3.72;;;;;;;13.18;72.07;98874.14;4039149;86;21618;-81
2022/05/22 05:32:50;;;;;;;6.25;3.87;;;;;;;13.35;72.01;98869.78;4112274;86;21051;-83
2022/05/22 05:39:13;;;;;;;8.43;4.70;;;;;;;13.46;72.23;98872.71;4001260;87;21122;-83
2022/05/22 05:45:22;;;;;;;10.48;5.10;;;;;;;13.51;71.69;98866.81;4181039;84;21049;-82
2022/05/22 05:51:36;;;;;;;8.88;4.70;;;;;;;13.53;71.72;98871.91;4225094;82;21709;-82
2022/05/22 05:57:38;;;;;;;7.17;3.42;;;;;;;13.66;71.71;98871.08;4229193;82;21874;-85
2022/05/22 06:04:38;;;;;;;7.28;4.17;;;;;;;13.66;71.48;98873.03;4233231;83;21651;-81
2022/05/22 06:10:53;;;;;;;6.55;3.10;;;;;;;13.74;71.12;98862.20;4241091;82;21035;-82
2022/05/22 06:17:10;;;;;;;7.12;2.83;;;;;;;13.89;71.15;98858.23;4218517;82;21559;-82
2022/05/22 06:23:36;;;;;;;4.58;2.67;;;;;;;14.12;70.69;98858.50;4249759;82;21085;-82
2022/05/22 06:36:53;;;;;;;8.25;2.60;;;;;;;14.50;69.82;98860.87;4052663;86;21118;-82
2022/05/22 06:50:14;;;;;;;6.60;2.40;;;;;;;14.98;69.14;98854.78;4076344;82;21133;-83
2022/05/22 06:56:20;;;;;;;4.67;1.80;;;;;;;15.30;68.70;98849.77;4232771;81;21380;-83
2022/05/22 07:02:59;;;;;;;4.70;2.15;;;;;;;15.75;68.07;98847.70;4181870;83;21989;-84
2022/05/22 07:09:47;;;;;;;5.67;2.15;;;;;;;15.54;67.03;98844.00;4219351;83;21543;-82
2022/05/22 07:16:33;;;;;;;3.70;1.85;;;;;;;16.16;67.23;98843.61;4227657;82;21002;-84
2022/05/22 07:23:15;;;;;;;2.87;1.55;;;;;;;16.56;66.10;98839.12;4077801;86;21091;-85
2022/05/22 07:29:36;;;;;;;5.15;1.57;;;;;;;16.40;65.36;98845.25;4079982;86;21059;-82
2022/05/22 07:36:03;;;;;;;11.50;1.42;;;;;;;16.50;64.51;98845.73;4065492;86;21051;-84
2022/05/22 07:50:16;;;;;;;4.70;1.00;;;;;;;17.03;61.35;98831.84;4113453;86;20198;-83
2022/05/22 07:56:22;;;;;;;3.80;1.40;;;;;;;17.09;60.05;98837.06;3865313;90;21203;-85
2022/05/22 08:02:54;;;;;;;5.65;1.30;;;;;;;17.20;60.97;98829.95;4021680;86;21054;-83
2022/05/22 08:09:04;;;;;;;5.22;1.95;;;;;;;16.86;60.32;98832.92;3978956;89;21094;-85
2022/05/22 08:22:33;;;;;;;6.67;1.30;;;;;;;16.95;58.47;98826.25;3925044;87;21160;-84
2022/05/22 08:28:40;;;;;;;3.92;1.17;;;;;;;16.78;57.95;98832.06;3874264;91;21092;-82
2022/05/22 08:34:46;;;;;;;7.42;1.47;;;;;;;17.11;57.12;98821.43;3921506;89;21229;-84
2022/05/22 08:41:29;;;;;;;4.47;1.85;;;;;;;17.09;57.01;98825.20;3910455;89;21088;-82
2022/05/22 09:00:43;;;;;;;;;;;;;;;17.70;56.17;98813.99;3900693;90;21102;-85
2022/05/22 09:07:13;;;;;;;4.22;1.10;;;;;;;18.00;54.58;98801.30;4187153;83;20163;-86
2022/05/22 09:14:13;;;;;;;4.33;1.10;;;;;;;18.15;53.45;98799.00;4185263;83;21132;-82
2022/05/22 09:20:23;;;;;;;4.70;0.95;;;;;;;18.49;52.16;98804.37;4175099;83;21059;-84
2022/05/22 09:26:54;;;;;;;3.72;0.90;;;;;;;18.43;51.58;98804.69;4180328;83;21126;-84
2022/05/22 09:33:33;;;;;;;1.82;0.80;;;;;;;18.94;51.34;98800.28;4178780;83;21396;-86
2022/05/22 09:39:54;;;;;;;2.83;1.17;;;;;;;19.18;50.27;98800.86;4190268;83;21800;-84
2022/05/22 09:46:31;;;;;;;3.58;1.55;;;;;;;18.68;50.15;98798.58;4216049;83;22165;-83
2022/05/22 09:52:44;;;;;;;2.80;0.88;;;;;;;18.73;49.69;98797.27;4190372;83;21774;-85
2022/05/22 09:59:40;;;;;;;3.85;1.00;;;;;;;19.04;49.62;98783.20;4176728;84;21111;-83
2022/05/22 10:06:01;;;;;;;3.87;1.15;;;;;;;18.96;49.30;98776.27;4184631;83;21066;-84
2022/05/22 10:12:17;;;;;;;2.22;0.82;;;;;;;18.34;49.14;98775.98;4158601;83;21069;-84
2022/05/22 10:19:11;;;;;;;5.80;0.95;;;;;;;18.79;49.67;98755.32;4214608;83;21081;-85
2022/05/22 10:25:49;;;;;;;2.95;1.02;;;;;;;20.30;48.94;98742.69;4203239;81;21066;-86
2022/05/22 10:32:26;;;;;;;2.67;1.00;;;;;;;20.06;47.16;98751.31;4180547;83;21035;-84
2022/05/22 10:38:36;;;;;;;4.25;0.80;;;;;;;19.15;46.72;98765.06;4173619;83;21032;-83
2022/05/22 10:44:38;;;;;;;5.47;1.05;;;;;;;18.48;47.52;98765.38;4187840;83;21047;-83
2022/05/22 10:51:05;;;;;;;7.37;1.77;;;;;;;18.04;47.24;98772.91;4169633;83;22209;-82
2022/05/22 10:57:15;;;;;;;4.53;1.17;;;;;;;18.21;47.18;98777.27;4181417;83;21055;-85
2022/05/22 11:03:17;;;;;;;3.70;1.00;;;;;;;19.13;47.16;98768.88;4190748;83;21468;-85
2022/05/22 11:09:26;;;;;;;4.03;0.88;;;;;;;18.77;47.71;98778.54;4193768;83;21038;-84
2022/05/22 11:15:33;;;;;;;2.83;1.37;;;;;;;18.17;48.28;98776.58;4198168;83;21563;-84
2022/05/22 11:21:57;;;;;;;1.95;0.98;;;;;;;18.06;48.18;98765.55;4139255;84;21103;-83
2022/05/22 11:28:27;;;;;;;5.03;1.10;;;;;;;18.30;47.91;98758.08;4128486;85;21063;-86
2022/05/22 11:35:25;;;;;;;3.30;1.32;;;;;;;19.71;47.58;98761.33;4190491;83;21039;-86
2022/05/22 11:41:35;;;;;;;;;;;;;;;19.35;46.99;98771.28;4200762;83;21059;-85
2022/05/22 11:48:17;;;;;;;2.83;0.80;;;;;;;19.50;47.54;98772.42;4154668;84;20466;-84
2022/05/22 11:54:36;;;;;;;2.83;1.00;;;;;;;20.23;47.59;98766.53;4196544;83;21070;-85
2022/05/22 12:01:00;;;;;;;5.03;0.90;;;;;;;20.63;47.46;98764.82;4144623;84;21071;-86
2022/05/22 12:07:22;;;;;;;3.20;0.78;;;;;;;19.91;47.41;98769.64;4198395;83;21011;-86
2022/05/22 12:13:56;;;;;;;3.15;1.05;;;;;;;19.31;46.93;98765.03;4162042;83;21024;-86
2022/05/22 12:20:28;;;;;;;3.83;0.80;;;;;;;19.29;46.53;98765.30;4164606;82;21075;-86
2022/05/22 12:26:30;;;;;;;2.12;0.68;;;;;;;18.65;46.02;98778.02;4166143;84;21053;-86
2022/05/22 12:52:35;;;;;;;7.05;1.00;;;;;;;18.94;46.00;98775.32;3854738;91;21125;-83
2022/05/22 13:05:34;;;;;;;2.47;0.60;;;;;;;18.43;45.16;98768.66;3975123;88;21149;-85
2022/05/22 13:27:02;;;;;;;1.40;0.75;;;;;;;18.74;44.72;98765.70;4060045;84;22097;-83
2022/05/22 14:01:20;;;;;;;2.20;0.50;;;;;;;18.28;44.29;98743.87;3969022;88;21064;-85
2022/05/22 14:07:52;;;;;;;0.95;0.55;;;;;;;17.92;44.83;98738.97;3905097;91;21039;-83
2022/05/22 14:21:21;;;;;;;1.37;0.50;;;;;;;17.99;44.57;98724.19;4055629;83;21104;-85
2022/05/22 14:28:05;;;;;;;1.52;0.60;;;;;;;17.99;45.10;98726.95;4172886;83;20992;-83
2022/05/22 14:34:35;;;;;;;5.08;0.82;;;;;;;17.85;45.23;98716.98;4178824;83;21511;-84
2022/05/22 14:41:15;;;;;;;2.60;0.70;;;;;;;17.71;46.01;98721.42;4177526;83;21461;-85
2022/05/22 14:47:37;;;;;;;0.85;0.40;;;;;;;17.47;46.25;98729.67;4222525;82;21055;-83
2022/05/22 14:54:39;;;;;;;2.52;0.88;;;;;;;17.49;46.52;98727.85;4239926;82;20983;-84
2022/05/22 15:07:33;;;;;;;3.00;0.70;;;;;;;17.28;47.26;98735.95;4248422;83;21059;-82
2022/05/22 15:13:34;;;;;;;3.60;0.88;;;;;;;17.20;47.52;98736.70;4209740;83;21118;-85
2022/05/22 15:26:52;;;;;;;3.08;0.93;;;;;;;17.11;48.16;98729.57;4230382;83;21180;-84
2022/05/22 15:47:23;;;;;;;2.33;0.68;;;;;;;17.28;48.87;98728.24;4262857;82;21078;-84
2022/05/22 15:53:28;;;;;;;0.80;0.60;;;;;;;17.12;49.05;98716.50;4164685;84;21027;-83
2022/05/22 15:59:47;;;;;;;1.50;0.50;;;;;;;16.91;48.96;98725.22;4171985;84;21031;-83
2022/05/22 16:06:38;;;;;;;5.08;2.70;;;;;;;16.83;49.34;98730.09;4196589;84;21167;-83
2022/05/22 16:12:50;;;;;;;2.77;1.12;;;;;;;16.80;49.33;98712.95;4187543;82;21081;-84
2022/05/22 16:19:18;;;;;;;2.95;1.07;;;;;;;16.98;49.55;98713.41;4183921;84;21089;-84
2022/05/22 16:25:29;;;;;;;2.50;0.50;;;;;;;17.00;49.14;98722.08;4163079;84;21046;-83
2022/05/22 16:31:39;;;;;;;3.00;1.10;;;;;;;16.84;49.05;98723.95;4191524;83;21070;-83
2022/05/22 16:37:56;;;;;;;1.27;0.45;;;;;;;16.67;49.24;98728.60;4198439;83;21110;-83
2022/05/22 16:44:11;;;;;;;1.40;0.53;;;;;;;16.52;49.38;98731.41;4190605;83;21392;-83
2022/05/22 17:10:13;;;;;;;;;;;;;;;16.13;50.31;98744.27;3967931;88;22039;-83
2022/05/22 17:16:30;;;;;;;2.35;1.00;;;;;;;15.99;50.71;98747.24;4020166;88;20238;-83
2022/05/22 17:22:44;;;;;;;2.12;0.98;;;;;;;15.90;50.95;98749.72;3842445;91;22278;-82
2022/05/22 17:28:59;;;;;;;2.00;0.90;;;;;;;15.77;50.98;98758.39;3845046;91;21087;-83
2022/05/22 17:35:04;;;;;;;3.20;0.90;;;;;;;15.63;51.28;98751.85;4253579;83;22016;-83
2022/05/22 17:41:28;;;;;;;3.20;1.12;;;;;;;15.55;51.42;98762.79;4212937;83;20999;-83
2022/05/22 17:48:22;;;;;;;5.08;1.40;;;;;;;15.47;51.40;98755.80;4221192;82;21059;-83
2022/05/22 17:55:00;;;;;;;4.00;1.17;;;;;;;15.41;51.93;98762.20;4200202;84;20992;-82
2022/05/22 18:08:12;;;;;;;1.22;0.70;;;;;;;15.25;52.46;98755.06;4201795;84;20999;-83
2022/05/22 18:28:46;;;;;;;8.25;1.92;;;;;;;15.10;53.79;98759.95;4156534;82;21002;-83
2022/05/22 18:34:58;;;;;;;3.00;1.85;;;;;;;14.99;54.01;98749.63;4248342;83;20984;-83
2022/05/22 18:41:25;;;;;;;2.47;1.32;;;;;;;14.91;54.27;98761.15;4222997;84;21039;-82
2022/05/22 18:48:06;;;;;;;;;;;;;;;14.80;54.61;98761.23;4292416;82;21010;-83
2022/05/22 18:54:35;;;;;;;6.90;2.08;;;;;;;14.73;55.90;98759.94;4251891;82;20128;-83
2022/05/22 19:01:24;;;;;;;6.95;2.60;;;;;;;14.69;55.70;98768.81;4197431;83;20977;-83
2022/05/22 19:08:21;;;;;;;5.90;2.12;;;;;;;14.56;55.37;98771.89;4164302;84;21998;-83
2022/05/22 19:14:56;;;;;;;6.15;2.10;;;;;;;14.49;56.05;98776.66;4125575;84;21058;-83
2022/05/22 19:21:14;;;;;;;5.60;2.22;;;;;;;14.42;57.40;98776.14;4138361;81;20946;-82
2022/05/22 19:27:16;;;;;;;6.27;2.53;;;;;;;14.28;58.95;98785.88;4322533;81;20958;-83
2022/05/22 19:33:20;;;;;;;4.92;2.50;;;;;;;14.28;58.95;98785.88;4295763;81;21817;-83
2022/05/22 19:40:15;;;;;;;4.75;2.10;;;;;;;14.20;59.17;98794.73;4301227;81;21081;-83
2022/05/22 19:46:20;;;;;;;4.00;1.70;;;;;;;14.05;59.34;98796.59;4252538;82;21106;-83
2022/05/22 19:52:54;;;;;;;4.47;2.17;;;;;;;13.88;59.46;98796.91;4231514;82;21290;-82
2022/05/22 19:59:12;;;;;;;;;;;;;;;13.86;60.06;98791.59;4230896;83;21735;-83
2022/05/22 20:05:17;;;;;;;3.55;1.90;;;;;;;13.79;62.05;98792.44;4217584;82;20174;-83
2022/05/22 20:12:04;;;;;;;9.10;3.20;;;;;;;13.74;60.85;98794.80;4233474;83;21121;-83
2022/05/22 20:18:08;;;;;;;5.62;2.77;;;;;;;13.69;60.48;98797.97;4228802;83;21023;-82
2022/05/22 20:24:25;;;;;;;5.30;2.72;;;;;;;13.63;60.30;98798.98;4211330;83;21066;-82
2022/05/22 20:30:49;;;;;;;6.37;2.67;;;;;;;13.54;60.86;98787.64;4233713;83;20987;-83
2022/05/22 20:37:15;;;;;;;5.62;2.25;;;;;;;13.50;60.72;98787.47;4186195;83;21019;-82
2022/05/22 20:44:13;;;;;;;3.95;1.87;;;;;;;13.53;61.02;98788.03;4186984;83;21008;-82
2022/05/22 20:50:17;;;;;;;4.25;1.12;;;;;;;13.53;61.31;98790.78;4190052;83;21023;-84
2022/05/22 20:56:52;;;;;;;2.30;1.27;;;;;;;13.51;61.26;98802.19;4237149;82;21665;-82
2022/05/22 21:02:53;;;;;;;3.58;1.07;;;;;;;13.48;61.24;98797.48;4222326;83;21086;-83
2022/05/22 21:09:46;;;;;;;2.12;1.07;;;;;;;13.44;61.39;98790.41;4220252;83;21033;-82
2022/05/22 21:16:02;;;;;;;2.08;1.25;;;;;;;13.41;61.58;98792.58;4219583;83;21511;-82
2022/05/22 21:22:15;;;;;;;3.33;1.10;;;;;;;13.32;61.73;98794.97;4224313;83;21062;-83
2022/05/22 21:35:05;;;;;;;2.50;0.93;;;;;;;13.01;62.09;98801.33;4229712;83;21186;-82
2022/05/22 21:41:07;;;;;;;;;;;;;;;12.86;62.86;98811.52;4226444;83;21085;-83
2022/05/22 21:47:14;;;;;;;1.72;1.10;;;;;;;12.73;64.51;98809.00;4214191;83;20147;-83
2022/05/22 21:53:17;;;;;;;2.55;1.02;;;;;;;12.34;63.33;98807.59;4216985;83;21106;-82
2022/05/22 21:59:27;;;;;;;1.87;1.10;;;;;;;12.10;63.76;98814.42;4193676;83;20999;-82
2022/05/22 22:05:33;;;;;;;3.42;1.10;;;;;;;11.96;64.30;98819.87;4216866;83;21032;-82
2022/05/22 22:11:55;;;;;;;3.42;0.88;;;;;;;11.82;64.64;98813.77;4243097;83;21082;-82
2022/05/22 22:17:57;;;;;;;1.62;1.10;;;;;;;11.76;65.73;98816.67;4250098;83;22210;-82
2022/05/22 22:24:22;;;;;;;6.28;1.20;;;;;;;11.55;65.37;98812.46;4196394;82;21040;-82
2022/05/22 22:30:23;;;;;;;3.30;1.00;;;;;;;11.43;66.34;98812.80;4232946;83;21061;-82
2022/05/22 22:36:26;;;;;;;2.77;1.40;;;;;;;11.31;66.46;98807.63;4210208;83;21046;-82
2022/05/22 22:42:27;;;;;;;3.77;1.42;;;;;;;11.25;66.51;98807.80;4232963;83;21502;-82
2022/05/22 22:48:30;;;;;;;2.37;1.20;;;;;;;11.30;66.68;98804.70;4208927;83;21023;-83
2022/05/22 23:01:12;;;;;;;2.70;1.72;;;;;;;11.24;67.12;98799.39;4221832;83;21070;-82
2022/05/22 23:07:24;;;;;;;3.55;1.67;;;;;;;11.36;67.74;98789.47;4252386;83;20963;-82
2022/05/22 23:13:40;;;;;;;6.92;2.17;;;;;;;11.36;68.15;98788.09;4217945;82;21085;-81
2022/05/22 23:19:46;;;;;;;3.37;2.05;;;;;;;11.41;68.12;98784.98;4191217;83;21067;-81
2022/05/22 23:25:51;;;;;;;3.27;1.70;;;;;;;11.39;68.19;98783.21;4223091;82;22273;-82
2022/05/22 23:32:01;;;;;;;5.17;2.02;;;;;;;11.34;68.66;98780.06;4240913;82;21074;-82
2022/05/22 23:38:26;;;;;;;3.02;1.75;;;;;;;11.30;69.15;98788.84;4240474;82;21045;-83
2022/05/22 23:44:37;;;;;;;3.80;2.22;;;;;;;11.25;69.39;98783.72;4208059;83;21509;-82
2022/05/22 23:50:43;;;;;;;4.92;2.40;;;;;;;11.23;69.56;98782.73;4222817;83;21093;-81
2022/05/22 23:56:45;;;;;;;5.83;2.42;;;;;;;11.19;69.97;98775.09;4229288;82;21031;-82
